Time;durP1;ratioP1;P1;durP2;ratioP2;P2;SDS_P1;SDS_P2;PMS_P1;PMS_P2;Temp;Humidity;BMP_temperature;BMP_pressure;BME280_temperature;BME280_humidity;BME280_pressure;Samples;Min_cycle;Max_cycle;Signal;HPM_P1;HPM_P2
2022/12/21 00:00:26;;;;;;;44.70;14.63;;;8.70;99.90;;;;;;5031659;28;20057;-84
2022/12/21 00:02:52;;;;;;;43.85;13.02;;;8.70;99.90;;;;;;5048387;28;20041;-84
2022/12/21 00:05:18;;;;;;;44.80;12.43;;;8.70;99.90;;;;;;5047451;28;20449;-82
2022/12/21 00:07:43;;;;;;;45.50;12.45;;;8.70;99.90;;;;;;5043941;28;20116;-84
2022/12/21 00:10:10;;;;;;;44.42;13.82;;;8.60;99.90;;;;;;5043145;28;20045;-83
2022/12/21 00:12:35;;;;;;;47.20;14.00;;;8.60;99.90;;;;;;5044629;28;20095;-85
2022/12/21 00:15:01;;;;;;;56.72;14.73;;;8.60;99.90;;;;;;5049762;28;20506;-85
2022/12/21 00:17:27;;;;;;;44.55;13.32;;;8.60;99.90;;;;;;5049651;28;20041;-84
2022/12/21 00:19:52;;;;;;;47.53;12.60;;;8.50;99.90;;;;;;5050232;28;20095;-84
2022/12/21 00:22:18;;;;;;;42.95;14.05;;;8.50;99.90;;;;;;5044036;28;20406;-85
2022/12/21 00:24:44;;;;;;;51.85;14.80;;;8.50;99.90;;;;;;5043193;28;20123;-83
2022/12/21 00:27:09;;;;;;;47.53;13.35;;;8.40;99.90;;;;;;5049498;28;20045;-85
2022/12/21 00:29:35;;;;;;;53.67;12.90;;;8.40;99.90;;;;;;5050229;28;20494;-85
2022/12/21 00:32:01;;;;;;;43.58;12.70;;;8.40;99.90;;;;;;5047884;28;20126;-84
2022/12/21 00:34:27;;;;;;;52.67;15.05;;;8.40;99.90;;;;;;5049415;28;20055;-84
2022/12/21 00:36:52;;;;;;;;;;;8.40;99.90;;;;;;5049804;28;20485;-85
2022/12/21 00:39:18;;;;;;;57.20;13.05;;;8.40;99.90;;;;;;5043144;28;19921;-85
2022/12/21 00:41:44;;;;;;;43.40;12.30;;;8.30;99.90;;;;;;5050065;28;20395;-83
2022/12/21 00:44:10;;;;;;;49.50;13.30;;;8.30;99.90;;;;;;5049631;28;20059;-84
2022/12/21 00:46:36;;;;;;;49.35;13.77;;;8.30;99.90;;;;;;5050029;28;20137;-84
2022/12/21 00:49:04;;;;;;;46.67;13.48;;;8.20;99.90;;;;;;5047204;28;20094;-85
2022/12/21 00:51:32;;;;;;;51.55;13.02;;;8.20;99.90;;;;;;5029693;28;20045;-84
2022/12/21 00:53:59;;;;;;;53.33;13.73;;;8.20;99.90;;;;;;5037020;28;20051;-84
2022/12/21 00:56:25;;;;;;;42.05;12.70;;;8.20;99.90;;;;;;5042082;28;20406;-85
2022/12/21 00:58:52;;;;;;;52.08;14.65;;;8.20;99.90;;;;;;5060762;28;20045;-84
2022/12/21 01:01:23;;;;;;;52.90;13.60;;;8.20;99.90;;;;;;5049517;28;20088;-84
2022/12/21 01:03:49;;;;;;;49.85;13.07;;;8.20;99.90;;;;;;5049071;28;20398;-86
2022/12/21 01:06:36;;;;;;;58.92;14.80;;;8.10;99.90;;;;;;5047402;28;20889;-83
2022/12/21 01:09:04;;;;;;;45.78;13.43;;;8.10;99.90;;;;;;5045374;28;20061;-85
2022/12/21 01:11:29;;;;;;;47.92;13.05;;;8.00;99.90;;;;;;5029650;28;20142;-84
2022/12/21 01:13:56;;;;;;;47.65;13.20;;;8.10;99.90;;;;;;5029451;28;20085;-79
2022/12/21 01:16:28;;;;;;;48.47;13.45;;;8.00;99.90;;;;;;5029694;28;20396;-84
2022/12/21 01:18:54;;;;;;;51.35;12.77;;;8.00;99.90;;;;;;5029905;28;20042;-85
2022/12/21 01:21:23;;;;;;;51.05;13.25;;;8.10;99.90;;;;;;5040818;28;20060;-85
2022/12/21 01:23:49;;;;;;;54.35;13.50;;;8.00;99.90;;;;;;5048718;28;20087;-84
2022/12/21 01:26:15;;;;;;;59.22;13.70;;;8.10;99.90;;;;;;5037416;28;20191;-83
2022/12/21 01:28:41;;;;;;;54.25;12.93;;;8.20;99.90;;;;;;5043101;28;20028;-84
2022/12/21 01:31:07;;;;;;;52.45;12.90;;;8.10;99.90;;;;;;5047255;28;20075;-80
2022/12/21 01:33:33;;;;;;;53.03;13.57;;;8.20;99.90;;;;;;5048239;28;20701;-85
2022/12/21 01:36:03;;;;;;;;;;;8.20;99.90;;;;;;5048048;28;20491;-81
2022/12/21 01:38:28;;;;;;;43.92;12.77;;;8.20;99.90;;;;;;5048317;28;19929;-85
2022/12/21 01:40:54;;;;;;;57.35;11.77;;;8.20;99.90;;;;;;5048233;28;20048;-82
2022/12/21 01:43:38;;;;;;;46.83;11.93;;;8.20;99.90;;;;;;5047566;28;20359;-84
2022/12/21 01:46:10;;;;;;;53.20;13.13;;;8.10;99.90;;;;;;5046994;28;20053;-82
2022/12/21 01:48:44;;;;;;;49.95;13.10;;;8.10;99.90;;;;;;5046566;28;20033;-83
2022/12/21 01:51:11;;;;;;;43.03;12.25;;;8.10;99.90;;;;;;5047323;28;20047;-81
2022/12/21 01:53:42;;;;;;;53.88;12.05;;;8.10;99.90;;;;;;5048345;28;20057;-80
2022/12/21 01:56:10;;;;;;;53.90;12.95;;;8.10;99.90;;;;;;5048710;28;20041;-86
2022/12/21 01:58:36;;;;;;;44.92;11.40;;;8.10;99.90;;;;;;5049599;28;20041;-84
2022/12/21 02:01:03;;;;;;;47.67;12.75;;;8.00;99.90;;;;;;5040293;28;20057;-81
2022/12/21 02:03:43;;;;;;;54.65;11.48;;;8.00;99.90;;;;;;5029332;28;20037;-84
2022/12/21 02:06:15;;;;;;;52.47;10.95;;;8.00;99.90;;;;;;5034098;28;20084;-85
2022/12/21 02:08:42;;;;;;;49.90;12.85;;;7.90;99.90;;;;;;5044332;28;20449;-84
2022/12/21 02:11:10;;;;;;;48.70;11.52;;;8.00;99.90;;;;;;5029236;28;20050;-83
2022/12/21 02:13:35;;;;;;;45.10;10.65;;;8.00;99.90;;;;;;5029681;28;20061;-85
2022/12/21 02:16:19;;;;;;;41.25;10.40;;;7.90;99.90;;;;;;5029146;28;20076;-79
2022/12/21 02:19:02;;;;;;;43.80;11.82;;;8.00;99.90;;;;;;5029519;28;20129;-84
2022/12/21 02:21:33;;;;;;;44.50;11.30;;;8.00;99.90;;;;;;5030133;28;20053;-84
2022/12/21 02:24:19;;;;;;;42.38;11.07;;;8.00;99.90;;;;;;5036315;28;20049;-84
2022/12/21 02:27:13;;;;;;;33.00;10.50;;;7.90;99.90;;;;;;5030826;28;20054;-85
2022/12/21 02:30:00;;;;;;;41.22;12.27;;;7.90;99.90;;;;;;5032735;28;20129;-84
2022/12/21 02:32:47;;;;;;;48.20;11.90;;;7.90;99.90;;;;;;5049437;28;20088;-85
2022/12/21 02:35:33;;;;;;;43.72;11.00;;;8.00;99.90;;;;;;5052337;28;20055;-84
2022/12/21 02:38:30;;;;;;;57.00;11.88;;;8.00;99.90;;;;;;5050520;28;20491;-85
2022/12/21 02:41:29;;;;;;;39.22;10.13;;;7.90;99.90;;;;;;5049951;28;20056;-85
2022/12/21 02:44:12;;;;;;;54.47;11.75;;;7.90;99.90;;;;;;5052420;28;20092;-84
2022/12/21 02:47:15;;;;;;;40.97;11.77;;;7.90;99.90;;;;;;5038235;28;20534;-83
2022/12/21 02:50:06;;;;;;;38.28;10.02;;;7.90;99.90;;;;;;5032848;28;20053;-85
2022/12/21 02:52:46;;;;;;;41.20;11.30;;;7.90;99.90;;;;;;5047626;28;20053;-85
2022/12/21 02:55:13;;;;;;;45.60;10.70;;;7.80;99.90;;;;;;5031975;28;20098;-82
2022/12/21 02:57:43;;;;;;;41.60;11.02;;;7.80;99.90;;;;;;5035946;28;20047;-85
2022/12/21 03:00:15;;;;;;;39.40;10.40;;;7.80;99.90;;;;;;5051527;28;20056;-79
2022/12/21 03:06:01;;;;;;;35.30;9.50;;;7.80;99.90;;;;;;5051625;28;20072;-84
2022/12/21 03:08:59;;;;;;;42.25;10.30;;;7.70;99.90;;;;;;5031870;28;20677;-83
2022/12/21 03:11:41;;;;;;;41.17;11.57;;;7.70;99.90;;;;;;5045986;28;20052;-84
2022/12/21 03:14:33;;;;;;;38.17;9.95;;;7.70;99.90;;;;;;5051807;28;20399;-84
2022/12/21 03:17:26;;;;;;;39.35;11.75;;;7.60;99.90;;;;;;5049880;28;20045;-83
2022/12/21 03:20:19;;;;;;;37.63;10.77;;;7.60;99.90;;;;;;5028704;28;20045;-84
2022/12/21 03:22:57;;;;;;;42.40;11.00;;;7.50;99.90;;;;;;5051016;28;20057;-84
2022/12/21 03:25:41;;;;;;;38.85;11.20;;;7.50;99.90;;;;;;5035954;28;20126;-85
2022/12/21 03:28:13;;;;;;;37.40;10.30;;;7.40;99.90;;;;;;5052020;28;20111;-84
2022/12/21 03:30:45;;;;;;;40.33;10.90;;;7.40;99.90;;;;;;5051590;28;20092;-85
2022/12/21 03:33:15;;;;;;;35.67;9.73;;;7.30;99.90;;;;;;5051090;28;20049;-79
2022/12/21 03:36:00;;;;;;;38.60;10.68;;;7.30;99.90;;;;;;5051701;28;20041;-84
2022/12/21 03:38:44;;;;;;;46.42;10.60;;;7.30;99.90;;;;;;5048057;28;20045;-81
2022/12/21 03:41:24;;;;;;;46.28;10.23;;;7.30;99.90;;;;;;5050868;28;20125;-84
2022/12/21 03:43:53;;;;;;;43.58;11.02;;;7.30;99.90;;;;;;5031415;28;20499;-84
2022/12/21 03:46:24;;;;;;;46.33;11.75;;;7.30;99.90;;;;;;5046499;28;20506;-85
2022/12/21 03:48:54;;;;;;;47.20;12.20;;;7.30;99.90;;;;;;5031820;28;20136;-84
2022/12/21 03:51:34;;;;;;;49.53;11.18;;;7.30;99.90;;;;;;5045864;28;20084;-82
2022/12/21 03:54:28;;;;;;;43.25;10.32;;;7.30;99.90;;;;;;5031642;28;20093;-85
2022/12/21 03:56:54;;;;;;;44.28;11.45;;;7.30;99.90;;;;;;5030917;28;20054;-84
2022/12/21 03:59:20;;;;;;;;;;;7.30;99.90;;;;;;5050481;28;20098;-83
2022/12/21 04:02:12;;;;;;;41.45;11.65;;;7.30;99.90;;;;;;5049746;28;20360;-84
2022/12/21 04:04:59;;;;;;;53.22;11.13;;;7.30;99.90;;;;;;5049746;28;20132;-84
2022/12/21 04:07:27;;;;;;;43.83;11.73;;;7.30;99.90;;;;;;5063115;28;20102;-83
2022/12/21 04:10:01;;;;;;;46.63;11.43;;;7.30;99.90;;;;;;5043619;28;20095;-83
2022/12/21 04:12:37;;;;;;;50.33;11.77;;;7.40;99.90;;;;;;5050120;28;20091;-83
2022/12/21 04:15:21;;;;;;;46.10;10.85;;;7.40;99.90;;;;;;5050740;28;20080;-79
2022/12/21 04:17:51;;;;;;;40.15;11.13;;;7.40;99.90;;;;;;5039087;28;20049;-84
2022/12/21 04:20:22;;;;;;;44.17;11.32;;;7.40;99.90;;;;;;5045825;28;20443;-78
2022/12/21 04:28:18;;;;;;;46.13;11.70;;;7.40;99.90;;;;;;5044157;28;20084;-78
2022/12/21 04:30:45;;;;;;;47.67;10.43;;;7.40;99.90;;;;;;5045951;28;20092;-83
2022/12/21 04:33:13;;;;;;;40.33;10.45;;;7.40;99.90;;;;;;5030371;28;20582;-85
2022/12/21 04:38:30;;;;;;;43.70;10.75;;;7.40;99.90;;;;;;5028538;28;20054;-84
2022/12/21 04:40:57;;;;;;;47.95;11.75;;;7.40;99.90;;;;;;5030150;28;20053;-84
2022/12/21 04:43:24;;;;;;;56.67;13.13;;;7.40;99.90;;;;;;5030145;28;20399;-83
2022/12/21 04:45:58;;;;;;;52.72;12.02;;;7.40;99.90;;;;;;5037105;28;20048;-82
2022/12/21 04:48:23;;;;;;;47.38;12.20;;;7.40;99.90;;;;;;5048279;28;20053;-82
2022/12/21 04:50:49;;;;;;;51.83;12.48;;;7.40;99.90;;;;;;5048727;28;20179;-81
2022/12/21 04:53:15;;;;;;;51.95;11.57;;;7.40;99.90;;;;;;5048576;28;20191;-83
2022/12/21 04:55:45;;;;;;;60.72;13.85;;;7.40;99.90;;;;;;5035638;28;20098;-83
2022/12/21 04:58:11;;;;;;;56.97;12.38;;;7.40;99.90;;;;;;5050024;28;20498;-84
2022/12/21 05:00:36;;;;;;;55.95;11.90;;;7.40;99.90;;;;;;5049509;28;20059;-82
2022/12/21 05:03:02;;;;;;;46.70;11.48;;;7.40;99.90;;;;;;5042253;28;20132;-84
2022/12/21 05:05:28;;;;;;;56.92;10.35;;;7.40;99.90;;;;;;5029792;28;20373;-82
2022/12/21 05:07:54;;;;;;;49.40;12.13;;;7.40;99.90;;;;;;5057706;28;20479;-82
2022/12/21 05:10:20;;;;;;;54.50;12.30;;;7.30;99.90;;;;;;5038619;28;20056;-78
2022/12/21 05:12:45;;;;;;;53.03;12.57;;;7.30;99.90;;;;;;5029912;28;20042;-83
2022/12/21 05:15:13;;;;;;;69.18;12.07;;;7.30;99.90;;;;;;5029828;28;20803;-82
2022/12/21 05:17:39;;;;;;;49.42;11.75;;;7.30;99.90;;;;;;5029097;28;20049;-83
2022/12/21 05:20:06;;;;;;;64.57;12.07;;;7.30;99.90;;;;;;5030139;28;20045;-82
2022/12/21 05:22:31;;;;;;;49.28;11.98;;;7.20;99.90;;;;;;5028288;28;20092;-82
2022/12/21 05:24:58;;;;;;;49.15;11.82;;;7.30;99.90;;;;;;5029931;28;20092;-82
2022/12/21 05:27:24;;;;;;;66.65;13.80;;;7.30;99.90;;;;;;5039000;28;20052;-78
2022/12/21 05:29:49;;;;;;;57.03;11.32;;;7.30;99.90;;;;;;5049537;28;20056;-82
2022/12/21 05:32:15;;;;;;;63.72;12.82;;;7.20;99.90;;;;;;5049429;28;20045;-82
2022/12/21 05:34:41;;;;;;;72.32;13.02;;;7.30;99.90;;;;;;5048459;28;20478;-82
2022/12/21 05:37:07;;;;;;;57.22;12.68;;;7.30;99.90;;;;;;5064777;28;20047;-83
2022/12/21 05:39:34;;;;;;;62.45;11.75;;;7.30;99.90;;;;;;5049150;28;20139;-82
2022/12/21 05:42:03;;;;;;;54.50;11.15;;;7.30;99.90;;;;;;5049111;28;20057;-83
2022/12/21 05:44:29;;;;;;;51.60;11.18;;;7.30;99.90;;;;;;5048911;28;20075;-83
2022/12/21 05:46:55;;;;;;;55.75;13.18;;;7.30;99.90;;;;;;5049345;28;20042;-82
2022/12/21 05:49:21;;;;;;;50.85;12.45;;;7.20;99.90;;;;;;5048587;28;20478;-83
2022/12/21 05:51:48;;;;;;;54.17;13.05;;;7.30;99.90;;;;;;5041665;28;20589;-81
2022/12/21 05:54:15;;;;;;;56.30;13.18;;;7.30;99.90;;;;;;5029801;28;20056;-82
2022/12/21 05:56:41;;;;;;;54.40;11.75;;;7.30;99.90;;;;;;5028503;28;20502;-84
2022/12/21 05:59:06;;;;;;;55.88;13.48;;;7.30;99.90;;;;;;5029518;28;20045;-83
2022/12/21 06:01:32;;;;;;;55.53;13.60;;;7.30;99.90;;;;;;5038486;28;20052;-83
2022/12/21 06:03:58;;;;;;;54.30;12.60;;;7.30;99.90;;;;;;5047552;28;20075;-82
2022/12/21 06:06:23;;;;;;;74.07;13.40;;;7.40;99.90;;;;;;5052502;28;20055;-83
2022/12/21 06:08:49;;;;;;;65.22;13.80;;;7.40;99.90;;;;;;5051323;28;20080;-81
2022/12/21 06:11:18;;;;;;;77.38;13.80;;;7.40;99.90;;;;;;5052755;28;20045;-82
2022/12/21 06:13:44;;;;;;;71.70;15.90;;;7.40;99.90;;;;;;5050251;28;20479;-80
2022/12/21 06:16:18;;;;;;;74.43;14.38;;;7.50;99.90;;;;;;5048730;28;20048;-81
2022/12/21 06:18:44;;;;;;;82.10;16.23;;;7.60;99.90;;;;;;5052680;28;20466;-81
2022/12/21 06:21:11;;;;;;;;;;;7.60;99.90;;;;;;5043788;28;20046;-82
2022/12/21 06:23:38;;;;;;;78.13;14.77;;;7.60;99.90;;;;;;5052483;28;19967;-83
2022/12/21 06:26:05;;;;;;;79.70;14.30;;;7.60;99.90;;;;;;5052450;28;20139;-81
2022/12/21 06:28:31;;;;;;;71.30;15.52;;;7.60;99.90;;;;;;5052779;28;20045;-79
2022/12/21 06:31:12;;;;;;;90.95;16.65;;;7.60;99.90;;;;;;5049426;28;20051;-80
2022/12/21 06:33:38;;;;;;;82.13;17.08;;;7.70;99.90;;;;;;5049709;28;20117;-79
2022/12/21 06:36:09;;;;;;;77.63;16.67;;;7.70;99.90;;;;;;5046919;28;20111;-80
2022/12/21 06:38:35;;;;;;;72.88;15.93;;;7.70;99.90;;;;;;5040730;28;20124;-80
2022/12/21 06:41:03;;;;;;;84.00;17.45;;;7.60;99.90;;;;;;5044261;28;20052;-83
2022/12/21 06:43:31;;;;;;;98.53;19.42;;;7.60;99.90;;;;;;5039470;28;20049;-82
2022/12/21 06:45:59;;;;;;;84.88;17.13;;;7.60;99.90;;;;;;5048907;28;20049;-81
2022/12/21 06:48:27;;;;;;;85.70;16.33;;;7.70;99.90;;;;;;5052059;28;20051;-83
2022/12/21 06:51:13;;;;;;;73.63;16.55;;;7.60;99.90;;;;;;5050552;28;20382;-83
2022/12/21 06:53:41;;;;;;;65.68;15.27;;;7.60;99.90;;;;;;5050425;28;20120;-81
2022/12/21 06:56:13;;;;;;;65.75;15.25;;;7.60;99.90;;;;;;5049996;28;20145;-83
2022/12/21 06:58:39;;;;;;;64.43;15.52;;;7.60;99.90;;;;;;5050053;28;20044;-79
2022/12/21 07:01:10;;;;;;;75.68;16.35;;;7.60;99.90;;;;;;5036392;28;20049;-81
2022/12/21 07:03:37;;;;;;;69.45;16.20;;;7.60;99.90;;;;;;5051207;28;20048;-79
2022/12/21 07:06:03;;;;;;;75.93;15.10;;;7.60;99.90;;;;;;5051751;28;20534;-83
2022/12/21 07:08:29;;;;;;;74.55;15.52;;;7.60;99.90;;;;;;5052223;28;20049;-83
2022/12/21 07:10:59;;;;;;;71.90;16.48;;;7.50;99.90;;;;;;5035429;28;20562;-82
2022/12/21 07:13:26;;;;;;;78.70;16.50;;;7.50;99.90;;;;;;5031897;28;20052;-83
2022/12/21 07:15:52;;;;;;;78.68;16.45;;;7.60;99.90;;;;;;5047496;28;20041;-82
2022/12/21 07:18:19;;;;;;;83.47;16.90;;;7.50;99.90;;;;;;5051927;28;20048;-83
2022/12/21 07:20:45;;;;;;;92.88;17.58;;;7.50;99.90;;;;;;5051691;28;20044;-83
2022/12/21 07:23:11;;;;;;;;;;;7.50;99.90;;;;;;5046384;28;20049;-82
2022/12/21 07:25:36;;;;;;;83.03;15.38;;;7.50;99.90;;;;;;5048825;28;19924;-83
2022/12/21 07:28:02;;;;;;;78.18;17.50;;;7.50;99.90;;;;;;5051180;28;20453;-83
2022/12/21 07:30:28;;;;;;;86.32;17.83;;;7.50;99.90;;;;;;5047954;28;20084;-80
2022/12/21 07:32:54;;;;;;;88.40;16.23;;;7.50;99.90;;;;;;5050009;28;20120;-79
2022/12/21 07:35:23;;;;;;;;;;;7.50;99.90;;;;;;5051765;28;20053;-83
2022/12/21 07:37:50;;;;;;;96.57;20.55;;;7.50;99.90;;;;;;5050714;28;20004;-80
2022/12/21 07:40:17;;;;;;;82.72;16.98;;;7.60;99.90;;;;;;5051323;28;20182;-81
2022/12/21 07:42:44;;;;;;;97.72;19.55;;;7.50;99.90;;;;;;5051154;28;20041;-78
2022/12/21 07:45:10;;;;;;;98.47;18.65;;;7.50;99.90;;;;;;5048297;28;20084;-83
2022/12/21 07:47:36;;;;;;;;;;;7.50;99.90;;;;;;5051126;28;20496;-79
2022/12/21 07:50:03;;;;;;;99.80;18.08;;;7.50;99.90;;;;;;5046426;28;19983;-79
2022/12/21 07:52:30;;;;;;;112.80;18.77;;;7.50;99.90;;;;;;5038620;28;20041;-79
2022/12/21 07:54:56;;;;;;;101.07;16.77;;;7.50;99.90;;;;;;5046707;28;20049;-79
2022/12/21 07:57:22;;;;;;;95.43;19.88;;;7.50;99.90;;;;;;5066588;28;20057;-79
2022/12/21 07:59:48;;;;;;;87.38;17.48;;;7.50;99.90;;;;;;5050392;28;20076;-79
2022/12/21 08:02:13;;;;;;;104.47;19.05;;;7.50;99.90;;;;;;5050734;28;20059;-80
2022/12/21 08:04:39;;;;;;;85.97;16.65;;;7.50;99.90;;;;;;5050087;28;20049;-78
2022/12/21 08:07:05;;;;;;;87.78;16.85;;;7.50;99.90;;;;;;5048346;28;20094;-79
2022/12/21 08:09:35;;;;;;;102.22;17.67;;;7.50;99.90;;;;;;5046705;28;20167;-79
2022/12/21 08:12:01;;;;;;;90.78;16.92;;;7.50;99.90;;;;;;5046219;28;20041;-79
2022/12/21 08:14:27;;;;;;;100.57;17.20;;;7.40;99.90;;;;;;5050613;28;20448;-77
2022/12/21 08:16:54;;;;;;;87.90;17.35;;;7.40;99.90;;;;;;5049876;28;20049;-79
2022/12/21 08:19:20;;;;;;;94.55;16.60;;;7.40;99.90;;;;;;5051204;28;20124;-78
2022/12/21 08:21:45;;;;;;;;;;;7.40;99.90;;;;;;5050324;28;20119;-76
2022/12/21 08:24:11;;;;;;;109.95;17.73;;;7.40;99.90;;;;;;5048421;28;20019;-77
2022/12/21 08:26:37;;;;;;;95.65;18.45;;;7.40;99.90;;;;;;5045159;28;20135;-79
2022/12/21 08:29:03;;;;;;;111.00;18.77;;;7.40;99.90;;;;;;5048791;28;20734;-79
2022/12/21 08:31:29;;;;;;;78.30;16.65;;;7.40;99.90;;;;;;5049643;28;20123;-79
2022/12/21 08:33:55;;;;;;;82.00;15.23;;;7.40;99.90;;;;;;5049592;28;20052;-79
2022/12/21 08:36:22;;;;;;;83.38;16.25;;;7.40;99.90;;;;;;5049040;28;20111;-79
2022/12/21 08:38:50;;;;;;;82.20;17.15;;;7.30;99.90;;;;;;5049645;28;20569;-77
2022/12/21 08:41:16;;;;;;;105.05;16.98;;;7.40;99.90;;;;;;5049917;28;20497;-79
2022/12/21 08:43:42;;;;;;;84.32;16.83;;;7.40;99.90;;;;;;5049595;28;20044;-72
2022/12/21 08:46:10;;;;;;;91.32;17.48;;;7.40;99.90;;;;;;5048474;28;20119;-75
2022/12/21 08:48:37;;;;;;;86.72;17.45;;;7.40;99.90;;;;;;5049717;28;20143;-78
2022/12/21 08:51:04;;;;;;;78.38;17.50;;;7.50;99.90;;;;;;5049368;28;20410;-76
2022/12/21 08:53:30;;;;;;;85.63;17.38;;;7.50;99.90;;;;;;5046531;28;20049;-84
2022/12/21 08:55:56;;;;;;;79.13;17.58;;;7.60;99.90;;;;;;5037195;28;20175;-75
2022/12/21 08:58:22;;;;;;;72.13;15.73;;;7.50;99.90;;;;;;5065800;28;20123;-75
2022/12/21 09:00:51;;;;;;;84.32;18.10;;;7.50;99.90;;;;;;5042698;28;20049;-75
2022/12/21 09:03:16;;;;;;;75.55;15.60;;;7.50;99.90;;;;;;5029809;28;20053;-80
2022/12/21 09:05:42;;;;;;;67.18;16.10;;;7.40;99.90;;;;;;5045419;28;20053;-79
2022/12/21 09:08:08;;;;;;;65.97;15.10;;;7.40;99.90;;;;;;5031757;28;20053;-79
2022/12/21 09:10:34;;;;;;;65.03;16.00;;;7.40;99.90;;;;;;5035692;28;20047;-83
2022/12/21 09:13:01;;;;;;;;;;;7.40;99.90;;;;;;5049947;28;20066;-81
2022/12/21 09:15:27;;;;;;;60.88;15.05;;;7.40;99.90;;;;;;5049846;28;19924;-80
2022/12/21 09:17:53;;;;;;;65.05;15.77;;;7.40;99.90;;;;;;5048656;28;20045;-77
2022/12/21 09:20:18;;;;;;;66.80;15.38;;;7.40;99.90;;;;;;5049267;28;20033;-79
2022/12/21 09:22:44;;;;;;;68.50;17.52;;;7.40;99.90;;;;;;5048798;28;20056;-81
2022/12/21 09:25:10;;;;;;;63.72;16.33;;;7.50;99.90;;;;;;5048763;28;20557;-78
2022/12/21 09:27:36;;;;;;;60.53;15.38;;;7.50;99.90;;;;;;5049399;28;20076;-78
2022/12/21 09:30:02;;;;;;;53.63;14.77;;;7.50;99.90;;;;;;5049198;28;20045;-79
2022/12/21 09:32:27;;;;;;;46.33;14.00;;;7.50;99.90;;;;;;5049278;28;20049;-78
2022/12/21 09:34:53;;;;;;;52.17;13.45;;;7.60;99.90;;;;;;5048873;28;20048;-77
2022/12/21 09:37:19;;;;;;;53.85;15.32;;;7.50;99.90;;;;;;5052420;28;20055;-79
2022/12/21 09:39:44;;;;;;;50.08;13.05;;;7.50;99.90;;;;;;5052524;28;20124;-80
2022/12/21 09:43:04;;;;;;;49.58;13.32;;;7.60;99.90;;;;;;5052079;28;20053;-78
2022/12/21 09:45:44;;;;;;;50.10;13.50;;;7.50;99.90;;;;;;5007144;28;20144;-79
2022/12/21 09:48:14;;;;;;;41.70;12.93;;;7.50;99.90;;;;;;5049963;28;20072;-78
2022/12/21 09:50:45;;;;;;;45.70;13.48;;;7.60;99.90;;;;;;5053419;28;20045;-72
2022/12/21 09:53:46;;;;;;;47.38;14.55;;;7.60;99.90;;;;;;5050088;28;20052;-79
2022/12/21 09:56:16;;;;;;;49.55;14.82;;;7.60;99.90;;;;;;5046363;28;20600;-76
2022/12/21 09:58:50;;;;;;;42.53;13.25;;;7.60;99.90;;;;;;5052174;28;20045;-76
2022/12/21 10:01:28;;;;;;;39.05;12.32;;;7.70;99.90;;;;;;5048151;28;20040;-79
2022/12/21 10:04:12;;;;;;;50.15;13.20;;;7.70;99.90;;;;;;5050783;28;20394;-78
2022/12/21 10:06:51;;;;;;;46.70;12.27;;;7.70;99.90;;;;;;5050046;28;20041;-79
2022/12/21 10:09:32;;;;;;;47.10;14.70;;;7.70;99.90;;;;;;5043871;28;20040;-79
2022/12/21 10:12:02;;;;;;;50.75;14.23;;;7.70;99.90;;;;;;5049624;28;20057;-80
2022/12/21 10:14:34;;;;;;;48.28;13.82;;;7.70;99.90;;;;;;5050979;28;20490;-79
2022/12/21 10:16:59;;;;;;;51.08;13.63;;;7.70;99.90;;;;;;5035437;28;20056;-76
2022/12/21 10:19:39;;;;;;;41.30;11.93;;;7.70;99.90;;;;;;5031351;28;20041;-79
2022/12/21 10:22:18;;;;;;;50.50;14.20;;;7.70;99.90;;;;;;5043451;28;20056;-78
2022/12/21 10:24:57;;;;;;;45.20;12.15;;;7.70;99.90;;;;;;5050609;28;20052;-80
2022/12/21 10:27:40;;;;;;;46.75;13.00;;;7.70;99.90;;;;;;5050014;28;20557;-80
2022/12/21 10:30:12;;;;;;;43.80;13.57;;;7.80;99.90;;;;;;5050634;28;20098;-79
2022/12/21 10:32:44;;;;;;;47.92;12.95;;;7.70;99.90;;;;;;5047418;28;20055;-77
2022/12/21 10:35:16;;;;;;;47.10;13.20;;;7.70;99.90;;;;;;5049495;28;20037;-78
2022/12/21 10:37:44;;;;;;;38.97;12.18;;;7.70;99.90;;;;;;5048026;28;20077;-79
2022/12/21 10:40:11;;;;;;;41.47;13.60;;;7.80;99.90;;;;;;5042933;28;20037;-78
2022/12/21 10:42:40;;;;;;;47.63;14.18;;;7.90;99.90;;;;;;5032703;28;20045;-79
2022/12/21 10:45:10;;;;;;;44.35;12.73;;;8.00;99.90;;;;;;5044981;28;20091;-76
2022/12/21 10:47:37;;;;;;;45.85;13.80;;;8.00;99.90;;;;;;5034134;28;20121;-78
2022/12/21 10:50:16;;;;;;;44.53;12.98;;;8.00;99.90;;;;;;5041861;28;20106;-77
2022/12/21 10:52:44;;;;;;;46.17;12.63;;;8.00;99.90;;;;;;5047427;28;20231;-76
2022/12/21 10:55:18;;;;;;;37.80;14.13;;;8.00;99.90;;;;;;5045430;28;20317;-79
2022/12/21 10:58:03;;;;;;;47.13;13.05;;;8.10;99.90;;;;;;5043724;28;20922;-81
2022/12/21 11:00:35;;;;;;;40.53;12.25;;;8.10;99.90;;;;;;5037225;28;20053;-80
2022/12/21 11:03:03;;;;;;;43.63;13.15;;;8.30;99.90;;;;;;5035322;28;20563;-82
2022/12/21 11:05:37;;;;;;;35.25;11.43;;;8.50;99.90;;;;;;5046573;28;20049;-81
2022/12/21 11:08:31;;;;;;;36.20;11.77;;;8.80;99.90;;;;;;5049088;28;20114;-81
2022/12/21 11:11:01;;;;;;;39.38;12.07;;;8.90;99.90;;;;;;5043869;28;20083;-80
2022/12/21 11:13:30;;;;;;;33.97;11.15;;;9.00;99.90;;;;;;5041281;28;20079;-82
2022/12/21 11:16:09;;;;;;;36.65;12.00;;;9.10;99.90;;;;;;5045847;28;20445;-82
2022/12/21 11:18:46;;;;;;;36.70;11.90;;;9.00;99.90;;;;;;5049535;28;20053;-78
2022/12/21 11:21:42;;;;;;;42.90;11.75;;;9.00;99.90;;;;;;5047708;28;20783;-81
2022/12/21 11:24:21;;;;;;;33.90;12.52;;;9.00;99.90;;;;;;5041731;28;20060;-78
2022/12/21 11:26:53;;;;;;;34.60;11.77;;;8.90;99.90;;;;;;5044460;28;20044;-80
2022/12/21 11:29:26;;;;;;;41.15;12.32;;;9.00;99.90;;;;;;5048170;28;20075;-78
2022/12/21 11:31:55;;;;;;;36.53;11.73;;;9.20;99.90;;;;;;5049547;28;20043;-79
2022/12/21 11:34:47;;;;;;;44.65;12.80;;;9.00;99.90;;;;;;5044626;28;20057;-80
2022/12/21 11:37:36;;;;;;;36.45;13.48;;;9.20;99.90;;;;;;5028248;28;20044;-79
2022/12/21 11:40:11;;;;;;;41.22;14.32;;;9.20;99.90;;;;;;5034669;28;20055;-78
2022/12/21 11:42:58;;;;;;;39.83;13.43;;;9.20;99.90;;;;;;5028991;28;20076;-79
2022/12/21 11:45:38;;;;;;;;;;;9.20;99.90;;;;;;5033627;28;20494;-73
2022/12/21 11:48:27;;;;;;;40.55;14.35;;;9.30;99.90;;;;;;5028649;28;19925;-78
2022/12/21 11:51:07;;;;;;;46.17;14.05;;;9.40;99.90;;;;;;5029910;28;20046;-78
2022/12/21 11:53:53;;;;;;;40.28;14.15;;;9.70;99.90;;;;;;5029429;28;20119;-78
2022/12/21 11:56:37;;;;;;;39.67;13.40;;;10.00;99.90;;;;;;5035658;28;20391;-78
2022/12/21 11:59:41;;;;;;;42.70;13.35;;;10.40;99.90;;;;;;5046413;28;20087;-78
2022/12/21 12:02:33;;;;;;;35.80;13.90;;;10.90;99.90;;;;;;5046354;28;20137;-78
2022/12/21 12:05:01;;;;;;;38.95;13.30;;;11.70;99.90;;;;;;5048598;28;20084;-78
2022/12/21 12:07:33;;;;;;;35.75;12.80;;;12.10;99.90;;;;;;5044370;28;20544;-78
2022/12/21 12:10:38;;;;;;;34.40;13.50;;;12.70;99.90;;;;;;5047849;28;20532;-78
2022/12/21 12:13:29;;;;;;;38.67;14.00;;;12.80;99.90;;;;;;5045841;28;20148;-77
2022/12/21 12:16:03;;;;;;;43.35;13.65;;;12.80;99.90;;;;;;5047242;28;20047;-78
2022/12/21 12:18:47;;;;;;;33.97;12.70;;;12.80;99.90;;;;;;5043231;28;20046;-78
2022/12/21 12:21:30;;;;;;;37.40;12.80;;;12.80;99.90;;;;;;5045642;28;20083;-78
2022/12/21 12:24:18;;;;;;;35.53;14.10;;;13.10;99.90;;;;;;5047560;28;20053;-78
2022/12/21 12:27:02;;;;;;;32.72;13.27;;;13.20;99.90;;;;;;5043687;28;20394;-78
2022/12/21 12:29:47;;;;;;;42.08;13.48;;;12.80;99.90;;;;;;5047428;28;20052;-78
2022/12/21 12:32:21;;;;;;;35.65;13.68;;;12.10;99.90;;;;;;5046947;28;20049;-78
2022/12/21 12:35:23;;;;;;;34.60;13.45;;;11.50;99.90;;;;;;5048071;28;20073;-78
2022/12/21 12:38:18;;;;;;;38.60;13.30;;;11.00;99.90;;;;;;5047654;28;20045;-79
2022/12/21 12:40:52;;;;;;;33.03;13.27;;;10.90;99.90;;;;;;5046163;28;20133;-78
2022/12/21 12:43:46;;;;;;;39.33;13.40;;;11.60;99.90;;;;;;5043427;28;20037;-77
2022/12/21 12:46:17;;;;;;;33.72;12.98;;;12.40;99.90;;;;;;5036407;28;20549;-78
2022/12/21 12:48:48;;;;;;;33.90;13.88;;;12.70;99.90;;;;;;5044988;28;20633;-78
2022/12/21 12:51:31;;;;;;;33.00;11.77;;;12.40;99.90;;;;;;5039777;28;20565;-79
2022/12/21 12:54:19;;;;;;;38.40;13.85;;;11.80;99.90;;;;;;5031588;28;20067;-77
2022/12/21 12:57:11;;;;;;;37.38;13.35;;;11.20;99.90;;;;;;5035979;28;20052;-78
2022/12/21 13:00:08;;;;;;;35.28;12.63;;;10.60;99.90;;;;;;5044063;28;20064;-78
2022/12/21 13:02:52;;;;;;;31.50;10.70;;;10.20;99.90;;;;;;5040898;28;20486;-76
2022/12/21 13:05:32;;;;;;;34.03;11.15;;;10.00;99.90;;;;;;5035660;28;20052;-76
2022/12/21 13:08:03;;;;;;;35.58;11.90;;;9.90;99.90;;;;;;5027558;28;20064;-76
2022/12/21 13:10:43;;;;;;;35.22;13.15;;;10.00;99.90;;;;;;5030775;28;20427;-78
2022/12/21 13:13:17;;;;;;;33.78;11.90;;;10.30;99.90;;;;;;5030412;28;20053;-77
2022/12/21 13:15:58;;;;;;;34.63;12.45;;;10.50;99.90;;;;;;5028606;28;20045;-78